MSC Regina — 3FGF9 — position and weather

sailwx.info

Track history (hours):
 
Tides and Currents Weather Stations Pressure Air Temp Water Temp Dewpoint Dewpoint Depression Visibility Wind Speed Wind Dir Waves Ship Positions

MSC Regina

Last reported at 2014-Nov-27 16:33 UTC. Time now 2014-Nov-27 17:17 UTC.
Position N 37°04' W 026°56'.

Length 259 m; draft 10.3 m.

Type: Ship (hazmat cat A). MMSI: 357332000.

Date/timePositionNaut miles runAvg speedWind from/ knotsBaromVisibWave heightAir tempDewpointWater temp
2014-Nov-27 16:33N 37°04' W 026°56'1212.0
2014-Nov-27 15:33N 37°04' W 026°41'1212.0
2014-Nov-27 14:34N 37°04' W 026°26'1212.1
2014-Nov-27 13:33N 37°04' W 026°11'1312.6
2014-Nov-27 12:34N 37°04' W 025°55'1312.8
2014-Nov-27 11:33N 37°05' W 025°39'1414.2
2014-Nov-27 10:33N 37°06' W 025°21'1717.1
2014-Nov-27 09:33N 37°06' W 024°59'1717.0
2014-Nov-27 08:33N 37°06' W 024°38'1515.2
2014-Nov-27 07:33N 37°07' W 024°19'1414.5
2014-Nov-27 06:34N 37°09' W 024°01'1616.0
2014-Nov-27 05:34N 37°11' W 023°41'1717.3
2014-Nov-27 04:33N 37°13' W 023°19'1817.6
2014-Nov-27 03:33N 37°15' W 022°57'63914.8
2014-Nov-25 08:28N 37°49' W 009°33'2 2.1
2014-Nov-25 07:31N 37°49' W 009°30'1 1.2
2014-Nov-25 06:31N 37°51' W 009°30'1 1.3
2014-Nov-25 05:31N 37°52' W 009°30'1 1.5
2014-Nov-25 04:31N 37°53' W 009°30'6 6.6
2014-Nov-25 03:33N 37°53' W 009°22'1110.5
2014-Nov-25 02:33N 37°54' W 009°09'10 9.6
2014-Nov-25 01:33N 37°54' W 008°57'5 5.2
2014-Nov-25 00:33N 37°56' W 008°51'0 0.0
2014-Nov-24 23:33N 37°56' W 008°51'0 0.0
2014-Nov-24 22:33N 37°56' W 008°51'0 0.0
2014-Nov-24 21:33N 37°56' W 008°51'0 0.0
2014-Nov-24 20:33N 37°56' W 008°51'0 0.0
2014-Nov-24 19:33N 37°56' W 008°51'0 0.0
2014-Nov-24 18:33N 37°56' W 008°51'0 0.0
2014-Nov-24 17:33N 37°56' W 008°51'0 0.0
2014-Nov-24 16:33N 37°56' W 008°51'0 0.0
2014-Nov-24 15:33N 37°56' W 008°51'0 0.0
2014-Nov-24 14:33N 37°56' W 008°51'0 0.0
2014-Nov-24 13:33N 37°56' W 008°51'0 0.0
2014-Nov-24 12:33N 37°56' W 008°51'0 0.0
2014-Nov-24 11:33N 37°56' W 008°51'0 0.0
2014-Nov-24 10:33N 37°56' W 008°51'0 0.0
2014-Nov-24 09:33N 37°56' W 008°51'6 5.5
2014-Nov-24 08:33N 37°51' W 008°53'1312.9
2014-Nov-24 07:33N 37°39' W 008°59'1312.9
2014-Nov-24 06:33N 37°27' W 009°06'1312.8
2014-Nov-24 05:33N 37°15' W 009°12'3913.0
2014-Nov-24 02:31N 36°39' W 008°52'17119.1
2014-Nov-23 17:33N 36°00' W 005°26'22919.0
2014-Nov-23 05:32N 37°18' W 000°58'1919.7
2014-Nov-23 04:34N 37°30' W 000°39'1919.1
2014-Nov-23 03:34N 37°46' W 000°25'2019.7
2014-Nov-23 02:33N 38°03' W 000°12'8216.2
2014-Nov-22 21:29N 39°25' W 000°17'2 1.1
2014-Nov-22 19:28N 39°26' W 000°19'0 0.0
2014-Nov-22 18:31N 39°26' W 000°19'0 0.0
2014-Nov-22 17:19N 39°26' W 000°19'0 0.0
2014-Nov-22 16:31N 39°26' W 000°19'0 0.0
2014-Nov-22 15:19N 39°26' W 000°19'0 0.0
2014-Nov-22 14:31N 39°26' W 000°19'0 0.0
2014-Nov-22 13:31N 39°26' W 000°19'0 0.0
2014-Nov-22 12:31N 39°26' W 000°19'0 0.0
2014-Nov-22 11:31N 39°26' W 000°19'0 0.0
2014-Nov-22 10:31N 39°26' W 000°19'0 0.0
2014-Nov-22 09:28N 39°26' W 000°19'0 0.0
2014-Nov-22 08:31N 39°26' W 000°19'0 0.0
2014-Nov-22 07:25N 39°26' W 000°19'0 0.0
2014-Nov-22 06:31N 39°26' W 000°19'0 0.1
2014-Nov-22 05:33N 39°26' W 000°19'4 4.2
2014-Nov-22 04:33N 39°26' W 000°14'10 9.9
2014-Nov-22 03:32N 39°30' W 000°02'4213.2
2014-Nov-22 00:22N 39°47' E 000°48'1113.8
2014-Nov-21 23:33N 39°54' E 001°00'1414.3
2014-Nov-21 22:33N 40°01' E 001°16'1414.1
2014-Nov-21 21:33N 40°09' E 001°31'1413.7
2014-Nov-21 20:33N 40°16' E 001°46'1313.3
2014-Nov-21 19:33N 40°23' E 002°02'1413.9
2014-Nov-21 18:33N 40°30' E 002°17'1515.4
2014-Nov-21 17:33N 40°38' E 002°34'1615.6
2014-Nov-21 16:33N 40°46' E 002°52'1515.3
2014-Nov-21 15:33N 40°55' E 003°09'1514.9
2014-Nov-21 14:33N 41°03' E 003°25'1514.8
2014-Nov-21 13:33N 41°10' E 003°42'1414.0
2014-Nov-21 12:32N 41°18' E 003°58'1514.5
2014-Nov-21 11:28N 41°26' E 004°16'1614.3
2014-Nov-21 10:21N 41°35' E 004°33'10014.7
2014-Nov-21 03:33N 42°28' E 006°28'3015.1
2014-Nov-21 01:33N 42°44' E 007°03'1515.2
2014-Nov-21 00:33N 42°52' E 007°20'2115.2
2014-Nov-20 23:12N 43°02' E 007°44'1215.1
2014-Nov-20 22:23N 43°09' E 007°58'4315.0
2014-Nov-20 19:32N 43°31' E 008°48'1515.3
2014-Nov-20 18:33N 43°39' E 009°06'1615.5
2014-Nov-20 17:33N 43°48' E 009°24'1615.5
2014-Nov-20 16:34N 43°56' E 009°42'1111.4
2014-Nov-20 15:33N 44°05' E 009°51'1 1.1
2014-Nov-20 14:33N 44°07' E 009°50'0 0.0
2014-Nov-20 13:33N 44°07' E 009°50'0 0.0
2014-Nov-20 12:33N 44°07' E 009°50'0 0.0
2014-Nov-20 11:33N 44°07' E 009°50'0 0.0
2014-Nov-20 10:33N 44°07' E 009°50'0 0.0
2014-Nov-20 09:33N 44°07' E 009°50'0 0.0
2014-Nov-20 08:33N 44°07' E 009°50'0 0.0
2014-Nov-20 07:33N 44°07' E 009°50'0 0.0
2014-Nov-20 06:33N 44°07' E 009°50'0 0.0
2014-Nov-20 05:33N 44°07' E 009°50'0 0.0
2014-Nov-20 04:33N 44°07' E 009°50'0 0.0
2014-Nov-20 03:33N 44°07' E 009°50'0 0.0
2014-Nov-20 02:33N 44°07' E 009°50'0 0.0
2014-Nov-20 01:33N 44°07' E 009°50'0 0.0
2014-Nov-20 00:33N 44°07' E 009°50'0 0.0
2014-Nov-19 23:33N 44°07' E 009°50'0 0.0
2014-Nov-19 22:33N 44°07' E 009°50'0 0.0
2014-Nov-19 21:33N 44°07' E 009°50'0 0.0
2014-Nov-19 20:33N 44°07' E 009°50'0 0.0
2014-Nov-19 19:33N 44°07' E 009°50'0 0.0
2014-Nov-19 18:33N 44°07' E 009°50'0 0.0
2014-Nov-19 17:33N 44°07' E 009°50'0 0.0
2014-Nov-19 16:33N 44°07' E 009°50'0 0.0
2014-Nov-19 15:30N 44°07' E 009°50'0 0.0
2014-Nov-19 14:33N 44°07' E 009°50'0 0.0
2014-Nov-19 13:33N 44°07' E 009°50'0 0.0
2014-Nov-19 12:33N 44°07' E 009°50'0 0.0
2014-Nov-19 11:33N 44°07' E 009°50'0 0.1
2014-Nov-19 10:33N 44°06' E 009°50'5 4.9
2014-Nov-19 09:33N 44°02' E 009°54'2 1.9
2014-Nov-19 08:33N 44°01' E 009°56'1 0.7
2014-Nov-19 07:33N 44°01' E 009°56'0 0.2
2014-Nov-19 06:33N 44°01' E 009°56'3 2.8
2014-Nov-19 05:33N 43°58' E 009°56'0 0.1
2014-Nov-19 04:33N 43°58' E 009°56'8 8.5
2014-Nov-19 03:34N 43°50' E 009°51'1918.7
2014-Nov-19 02:34N 43°32' E 009°43'1818.0
2014-Nov-19 01:34N 43°16' E 009°53'1818.3
2014-Nov-19 00:34N 42°58' E 010°01'2118.6
2014-Nov-18 23:27N 42°39' E 010°09'1919.6
2014-Nov-18 22:29N 42°25' E 010°27'16120.0
2014-Nov-18 14:26N 40°33' E 013°01'  
Track history (hours):
 
Tides and Currents Weather Stations Pressure Air Temp Water Temp Dewpoint Dewpoint Depression Visibility Wind Speed Wind Dir Waves Ship Positions

MSC Regina

Last reported at 2014-Nov-27 16:33 UTC. Time now 2014-Nov-27 17:17 UTC.
Position N 37°04' W 026°56'.

Length 259 m; draft 10.3 m.

Type: Ship (hazmat cat A). MMSI: 357332000.

Date/timePositionNaut miles runAvg speedWind from/ knotsBaromVisibWave heightAir tempDewpointWater temp
2014-Nov-27 16:33N 37°04' W 026°56'1212.0
2014-Nov-27 15:33N 37°04' W 026°41'1212.0
2014-Nov-27 14:34N 37°04' W 026°26'1212.1
2014-Nov-27 13:33N 37°04' W 026°11'1312.6
2014-Nov-27 12:34N 37°04' W 025°55'1312.8
2014-Nov-27 11:33N 37°05' W 025°39'1414.2
2014-Nov-27 10:33N 37°06' W 025°21'1717.1
2014-Nov-27 09:33N 37°06' W 024°59'1717.0
2014-Nov-27 08:33N 37°06' W 024°38'1515.2
2014-Nov-27 07:33N 37°07' W 024°19'1414.5
2014-Nov-27 06:34N 37°09' W 024°01'1616.0
2014-Nov-27 05:34N 37°11' W 023°41'1717.3
2014-Nov-27 04:33N 37°13' W 023°19'1817.6
2014-Nov-27 03:33N 37°15' W 022°57'63914.8
2014-Nov-25 08:28N 37°49' W 009°33'2 2.1
2014-Nov-25 07:31N 37°49' W 009°30'1 1.2
2014-Nov-25 06:31N 37°51' W 009°30'1 1.3
2014-Nov-25 05:31N 37°52' W 009°30'1 1.5
2014-Nov-25 04:31N 37°53' W 009°30'6 6.6
2014-Nov-25 03:33N 37°53' W 009°22'1110.5
2014-Nov-25 02:33N 37°54' W 009°09'10 9.6
2014-Nov-25 01:33N 37°54' W 008°57'5 5.2
2014-Nov-25 00:33N 37°56' W 008°51'0 0.0
2014-Nov-24 23:33N 37°56' W 008°51'0 0.0
2014-Nov-24 22:33N 37°56' W 008°51'0 0.0
2014-Nov-24 21:33N 37°56' W 008°51'0 0.0
2014-Nov-24 20:33N 37°56' W 008°51'0 0.0
2014-Nov-24 19:33N 37°56' W 008°51'0 0.0
2014-Nov-24 18:33N 37°56' W 008°51'0 0.0
2014-Nov-24 17:33N 37°56' W 008°51'0 0.0
2014-Nov-24 16:33N 37°56' W 008°51'0 0.0
2014-Nov-24 15:33N 37°56' W 008°51'0 0.0
2014-Nov-24 14:33N 37°56' W 008°51'0 0.0
2014-Nov-24 13:33N 37°56' W 008°51'0 0.0
2014-Nov-24 12:33N 37°56' W 008°51'0 0.0
2014-Nov-24 11:33N 37°56' W 008°51'0 0.0
2014-Nov-24 10:33N 37°56' W 008°51'0 0.0
2014-Nov-24 09:33N 37°56' W 008°51'6 5.5
2014-Nov-24 08:33N 37°51' W 008°53'1312.9
2014-Nov-24 07:33N 37°39' W 008°59'1312.9
2014-Nov-24 06:33N 37°27' W 009°06'1312.8
2014-Nov-24 05:33N 37°15' W 009°12'3913.0
2014-Nov-24 02:31N 36°39' W 008°52'17119.1
2014-Nov-23 17:33N 36°00' W 005°26'22919.0
2014-Nov-23 05:32N 37°18' W 000°58'1919.7
2014-Nov-23 04:34N 37°30' W 000°39'1919.1
2014-Nov-23 03:34N 37°46' W 000°25'2019.7
2014-Nov-23 02:33N 38°03' W 000°12'8216.2
2014-Nov-22 21:29N 39°25' W 000°17'2 1.1
2014-Nov-22 19:28N 39°26' W 000°19'0 0.0
2014-Nov-22 18:31N 39°26' W 000°19'0 0.0
2014-Nov-22 17:19N 39°26' W 000°19'0 0.0
2014-Nov-22 16:31N 39°26' W 000°19'0 0.0
2014-Nov-22 15:19N 39°26' W 000°19'0 0.0
2014-Nov-22 14:31N 39°26' W 000°19'0 0.0
2014-Nov-22 13:31N 39°26' W 000°19'0 0.0
2014-Nov-22 12:31N 39°26' W 000°19'0 0.0
2014-Nov-22 11:31N 39°26' W 000°19'0 0.0
2014-Nov-22 10:31N 39°26' W 000°19'0 0.0
2014-Nov-22 09:28N 39°26' W 000°19'0 0.0
2014-Nov-22 08:31N 39°26' W 000°19'0 0.0
2014-Nov-22 07:25N 39°26' W 000°19'0 0.0
2014-Nov-22 06:31N 39°26' W 000°19'0 0.1
2014-Nov-22 05:33N 39°26' W 000°19'4 4.2
2014-Nov-22 04:33N 39°26' W 000°14'10 9.9
2014-Nov-22 03:32N 39°30' W 000°02'4213.2
2014-Nov-22 00:22N 39°47' E 000°48'1113.8
2014-Nov-21 23:33N 39°54' E 001°00'1414.3
2014-Nov-21 22:33N 40°01' E 001°16'1414.1
2014-Nov-21 21:33N 40°09' E 001°31'1413.7
2014-Nov-21 20:33N 40°16' E 001°46'1313.3
2014-Nov-21 19:33N 40°23' E 002°02'1413.9
2014-Nov-21 18:33N 40°30' E 002°17'1515.4
2014-Nov-21 17:33N 40°38' E 002°34'1615.6
2014-Nov-21 16:33N 40°46' E 002°52'1515.3
2014-Nov-21 15:33N 40°55' E 003°09'1514.9
2014-Nov-21 14:33N 41°03' E 003°25'1514.8
2014-Nov-21 13:33N 41°10' E 003°42'1414.0
2014-Nov-21 12:32N 41°18' E 003°58'1514.5
2014-Nov-21 11:28N 41°26' E 004°16'1614.3
2014-Nov-21 10:21N 41°35' E 004°33'10014.7
2014-Nov-21 03:33N 42°28' E 006°28'3015.1
2014-Nov-21 01:33N 42°44' E 007°03'1515.2
2014-Nov-21 00:33N 42°52' E 007°20'2115.2
2014-Nov-20 23:12N 43°02' E 007°44'1215.1
2014-Nov-20 22:23N 43°09' E 007°58'4315.0
2014-Nov-20 19:32N 43°31' E 008°48'1515.3
2014-Nov-20 18:33N 43°39' E 009°06'1615.5
2014-Nov-20 17:33N 43°48' E 009°24'1615.5
2014-Nov-20 16:34N 43°56' E 009°42'1111.4
2014-Nov-20 15:33N 44°05' E 009°51'1 1.1
2014-Nov-20 14:33N 44°07' E 009°50'0 0.0
2014-Nov-20 13:33N 44°07' E 009°50'0 0.0
2014-Nov-20 12:33N 44°07' E 009°50'0 0.0
2014-Nov-20 11:33N 44°07' E 009°50'0 0.0
2014-Nov-20 10:33N 44°07' E 009°50'0 0.0
2014-Nov-20 09:33N 44°07' E 009°50'0 0.0
2014-Nov-20 08:33N 44°07' E 009°50'0 0.0
2014-Nov-20 07:33N 44°07' E 009°50'0 0.0
2014-Nov-20 06:33N 44°07' E 009°50'0 0.0
2014-Nov-20 05:33N 44°07' E 009°50'0 0.0
2014-Nov-20 04:33N 44°07' E 009°50'0 0.0
2014-Nov-20 03:33N 44°07' E 009°50'0 0.0
2014-Nov-20 02:33N 44°07' E 009°50'0 0.0
2014-Nov-20 01:33N 44°07' E 009°50'0 0.0
2014-Nov-20 00:33N 44°07' E 009°50'0 0.0
2014-Nov-19 23:33N 44°07' E 009°50'0 0.0
2014-Nov-19 22:33N 44°07' E 009°50'0 0.0
2014-Nov-19 21:33N 44°07' E 009°50'0 0.0
2014-Nov-19 20:33N 44°07' E 009°50'0 0.0
2014-Nov-19 19:33N 44°07' E 009°50'0 0.0
2014-Nov-19 18:33N 44°07' E 009°50'0 0.0
2014-Nov-19 17:33N 44°07' E 009°50'0 0.0
2014-Nov-19 16:33N 44°07' E 009°50'0 0.0
2014-Nov-19 15:30N 44°07' E 009°50'0 0.0
2014-Nov-19 14:33N 44°07' E 009°50'0 0.0
2014-Nov-19 13:33N 44°07' E 009°50'0 0.0
2014-Nov-19 12:33N 44°07' E 009°50'0 0.0
2014-Nov-19 11:33N 44°07' E 009°50'0 0.1
2014-Nov-19 10:33N 44°06' E 009°50'5 4.9
2014-Nov-19 09:33N 44°02' E 009°54'2 1.9
2014-Nov-19 08:33N 44°01' E 009°56'1 0.7
2014-Nov-19 07:33N 44°01' E 009°56'0 0.2
2014-Nov-19 06:33N 44°01' E 009°56'3 2.8
2014-Nov-19 05:33N 43°58' E 009°56'0 0.1
2014-Nov-19 04:33N 43°58' E 009°56'8 8.5
2014-Nov-19 03:34N 43°50' E 009°51'1918.7
2014-Nov-19 02:34N 43°32' E 009°43'1818.0
2014-Nov-19 01:34N 43°16' E 009°53'1818.3
2014-Nov-19 00:34N 42°58' E 010°01'2118.6
2014-Nov-18 23:27N 42°39' E 010°09'1919.6
2014-Nov-18 22:29N 42°25' E 010°27'16120.0
2014-Nov-18 14:26N 40°33' E 013°01'  

Dump ship's entire track history